Flight Track Log - Related Links

Times and Time Zones

All times are in EDT time to prevent confusion due to time zone crossing. See the BOE5 flight status page for this flight to view local times or setup timezone preferences in your user account.


Time Position Orientation Groundspeed Altitude Reporting Facility
EDT Latitude Longitude Course Direction KTS MPH feet Rate Location/Type
Fri 04:36:15 PM 47.2886 -119.3317 North 225 259 3,600  Level Seattle Center
Fri 04:37:16 PM 47.3617 -119.3106 11° North 260 299 5,700 2,459 Climbing Seattle Center
Fri 04:38:17 PM 47.4383 -119.2911 10° North 277 319 8,600 2,607 Climbing Seattle Center
Fri 04:39:18 PM 47.5181 -119.2706 10° North 289 333 11,000 2,164 Climbing Seattle Center
Fri 04:40:19 PM 47.6064 -119.2364 15° North 308 354 13,000 984 Climbing Seattle Center
Fri 04:41:00 PM 47.3048 -119.2957 North  Level FlightAware Approximate
Fri 04:41:20 PM 47.6525 -119.1131 61° Northeast 346 398 13,000  Level Seattle Center
Fri 04:42:21 PM 47.6886 -118.9883 67° East 333 383 13,000 393 Level Seattle Center
Fri 04:43:22 PM 47.7431 -118.9089 44° Northeast 295 339 13,800 492 Climbing Seattle Center
Fri 04:44:23 PM 47.7944 -118.9531 330° Northwest 233 268 14,000 98 Climbing Seattle Center
Fri 04:45:25 PM 47.8194 -119.0364 294° West 209 241 14,000  Level Seattle Center
Fri 04:46:26 PM 47.8378 -119.1169 289° West 206 237 14,000  Level Seattle Center
Fri 04:47:27 PM 47.8558 -119.1972 289° West 206 237 14,000  Level Seattle Center
Fri 04:48:28 PM 47.8717 -119.2783 286° West 205 236 14,000  Level Seattle Center
Fri 04:49:29 PM 47.8886 -119.3589 287° West 205 236 14,000  Level Seattle Center
Fri 04:50:30 PM 47.8778 -119.4469 260° West 202 232 14,000  Level Seattle Center
Fri 04:51:31 PM 47.8664 -119.5306 259° West 204 235 14,000  Level Seattle Center
Fri 04:52:32 PM 47.8528 -119.6117 256° West 204 235 14,000  Level Seattle Center
Fri 04:53:33 PM 47.8289 -119.6922 246° West 212 244 14,000  Level Seattle Center
Fri 04:54:34 PM 47.7958 -119.7761 240° Southwest 217 250 14,000 246 Level Seattle Center
Fri 04:55:35 PM 47.7656 -119.8486 238° Southwest 210 242 14,500 344 Climbing Seattle Center
Fri 04:56:36 PM 47.7194 -119.8539 184° South 298 343 14,700 -197 Climbing Seattle Center
Fri 04:57:37 PM 47.6956 -119.7250 105° East 326 375 14,100 -393 Descending Seattle Center
Fri 04:58:38 PM 47.7436 -119.6472 47° Northeast 275 316 13,900 590 Descending Seattle Center
Fri 04:59:39 PM 47.7939 -119.5897 38° Northeast 292 336 15,300 197 Climbing Seattle Center
Fri 05:00:40 PM 47.7475 -119.4631 119° Southeast 323 372 14,300 -197 Descending Seattle Center
Fri 05:01:41 PM 47.7325 -119.3431 100° East 295 339 14,900  Climbing Seattle Center
Fri 05:02:42 PM 47.7250 -119.2394 96° East 262 302 14,300 -295 Descending Seattle Center
Fri 05:03:43 PM 47.7192 -119.1344 95° East 257 296 14,300 393 Level Seattle Center
Fri 05:04:44 PM 47.7672 -119.1000 26° Northeast 201 231 15,100 98 Climbing Seattle Center
Fri 05:05:45 PM 47.7444 -119.1586 240° Southwest 176 203 14,500  Descending Seattle Center
Fri 05:06:46 PM 47.7281 -119.2189 248° West 159 183 15,100  Climbing Seattle Center
Fri 05:07:47 PM 47.7753 -119.1903 22° Northeast 219 252 14,500 -439 Descending Seattle Center
Fri 05:08:49 PM 47.8242 -119.1339 38° Northeast 225 259 14,200 -244 Descending Seattle Center
Fri 05:09:50 PM 47.8742 -119.0625 44° Northeast 247 284 14,000 -98 Descending Seattle Center
Fri 05:10:51 PM 47.8944 -118.9539 74° East 271 312 14,000 -197 Level Seattle Center
Fri 05:11:52 PM 47.8600 -118.8761 123° Southeast 262 302 13,600 197 Descending Seattle Center
Fri 05:12:53 PM 47.8333 -118.9481 241° Southwest 186 214 14,400 295 Climbing Seattle Center
Fri 05:13:54 PM 47.8300 -119.0147 266° West 162 186 14,200 -246 Descending Seattle Center
Fri 05:14:55 PM 47.8244 -119.0892 264° West 180 207 13,900 295 Descending Seattle Center
Fri 05:15:56 PM 47.8136 -119.1544 256° West 164 189 14,800 488 Climbing Seattle Center
Fri 05:16:58 PM 47.7986 -119.2231 252° West 174 200 14,900 -195 Climbing Seattle Center
Fri 05:17:59 PM 47.7808 -119.2933 249° West 172 198 14,400 -787 Descending Seattle Center
Fri 05:19:00 PM 47.7653 -119.3664 252° West 185 213 13,300 -689 Descending Seattle Center
Fri 05:20:01 PM 47.7467 -119.4461 251° West 190 219 13,000 -197 Descending Seattle Center
Fri 05:21:02 PM 47.7278 -119.5131 247° West 180 207 12,900 639 Descending Seattle Center
Fri 05:22:03 PM 47.7086 -119.5853 248° West 188 216 14,300 1,180 Climbing Seattle Center
Fri 05:23:04 PM 47.6956 -119.6344 248° West 138 159 15,300 836 Climbing Seattle Center
Fri 05:24:05 PM 47.6808 -119.7064 253° West 166 191 16,000 344 Climbing Seattle Center
Fri 05:25:06 PM 47.6714 -119.7781 259° West 183 211 16,000 -344 Level Seattle Center
Fri 05:26:07 PM 47.7122 -119.7458 28° Northeast 258 297 15,300 49 Descending Seattle Center
Fri 05:27:09 PM 47.7061 -119.6267 94° East 285 328 16,100 146 Climbing Seattle Center
Fri 05:28:10 PM 47.7147 -119.5097 84° East 284 327 15,600 -836 Descending Seattle Center
Fri 05:29:11 PM 47.7217 -119.4000 85° East 250 288 14,400 -590 Descending Seattle Center
Fri 05:30:12 PM 47.7314 -119.2842 83° East 276 318 14,400 -197 Level Seattle Center
Fri 05:31:13 PM 47.7425 -119.1917 80° East 265 305 14,000 -246 Descending Seattle Center
Fri 05:32:14 PM 47.7589 -119.0933 76° East 248 285 13,900  Descending Seattle Center
Fri 05:33:15 PM 47.7789 -119.0014 72° East 238 274 14,000 885 Climbing Seattle Center
Fri 05:34:16 PM 47.8050 -118.8886 71° East 240 276 15,700 738 Climbing Seattle Center
Fri 05:35:17 PM 47.8239 -118.7994 72° East 232 267 15,500 49 Descending Seattle Center
Fri 05:36:18 PM 47.7914 -118.7092 118° Southeast 254 292 15,800 488 Climbing Seattle Center
Fri 05:37:20 PM 47.7428 -118.7281 195° South 190 219 16,500 -195 Climbing Seattle Center
Fri 05:38:21 PM 47.7372 -118.7869 262° West 148 170 15,400 -1,033 Descending Seattle Center
Fri 05:39:22 PM 47.7333 -118.8475 265° West 149 171 14,400 -1,525 Descending Seattle Center
Fri 05:40:23 PM 47.7364 -118.9244 273° West 192 221 12,300 -1,082 Descending Seattle Center
Fri 05:41:24 PM 47.7397 -119.0200 273° West 240 276 12,200 -295 Descending Seattle Center
Fri 05:42:25 PM 47.7417 -119.1211 272° West 245 282 11,700 -98 Descending Seattle Center
Fri 05:43:26 PM 47.7425 -119.2183 271° West 236 272 12,000 1,820 Climbing Seattle Center
Fri 05:44:27 PM 47.7408 -119.3286 269° West 227 261 15,400 1,672 Climbing Seattle Center
Fri 05:45:28 PM 47.7350 -119.4083 264° West 205 236 15,400 197 Level Seattle Center
Fri 05:46:29 PM 47.7269 -119.5036 263° West 231 266 15,800 -639 Climbing Seattle Center
Fri 05:47:30 PM 47.7194 -119.5836 262° West 201 231 14,100 -148 Descending Seattle Center
Fri 05:48:31 PM 47.7083 -119.6897 261° West 235 270 15,500 1,033 Climbing Seattle Center
Fri 05:49:32 PM 47.6814 -119.7794 246° West 259 298 16,200 295 Climbing Seattle Center
Fri 05:50:33 PM 47.6272 -119.6906 132° Southeast 372 428 16,100 197 Descending Seattle Center
Fri 05:51:34 PM 47.6436 -119.5469 80° East 354 407 16,600 -393 Climbing Seattle Center
Fri 05:52:35 PM 47.6597 -119.4164 80° East 328 377 15,300 -344 Descending Seattle Center
Fri 05:53:36 PM 47.6794 -119.2728 78° East 339 390 15,900 984 Climbing Seattle Center
Fri 05:54:37 PM 47.6975 -119.1500 78° East 356 410 17,300 1,230 Climbing Seattle Center
Fri 05:55:38 PM 47.7200 -118.9942 78° East 382 440 18,400 639 Climbing Seattle Center
Fri 05:56:39 PM 47.7486 -118.8175 76° East 435 501 18,600 984 Climbing Seattle Center
Fri 05:57:40 PM 47.7878 -118.5911 75° East 469 540 20,400 1,574 Climbing Seattle Center
Fri 05:58:41 PM 47.8378 -118.4100 68° East 484 557 21,800 1,328 Climbing Seattle Center
Fri 05:59:42 PM 47.9406 -118.3839 10° North 397 457 23,100 1,574 Climbing Seattle Center
Fri 06:00:43 PM 48.0492 -118.3594 North 390 449 25,000 2,016 Climbing Seattle Center
Fri 06:01:44 PM 48.1553 -118.3278 11° North 391 450 27,200 1,721 Climbing Seattle Center
Fri 06:02:45 PM 48.2583 -118.2961 12° North 383 441 28,500 1,525 Climbing Seattle Center
Fri 06:03:46 PM 48.3614 -118.2633 12° North 381 438 30,300 1,230 Climbing Seattle Center
Fri 06:04:47 PM 48.4633 -118.2317 12° North 376 433 31,000 492 Climbing Seattle Center
Fri 06:05:48 PM 48.5700 -118.1975 12° North 384 442 31,300 246 Climbing Seattle Center
Fri 06:06:49 PM 48.6356 -118.2819 320° Northwest 363 418 31,500 246 Climbing Seattle Center
Fri 06:07:50 PM 48.6536 -118.4228 281° West 344 396 31,800 541 Climbing Seattle Center
Fri 06:08:51 PM 48.6711 -118.5681 280° West 350 403 32,600 689 Climbing Seattle Center
Fri 06:09:52 PM 48.6903 -118.7117 281° West 351 404 33,200 1,967 Climbing Seattle Center
Fri 06:10:53 PM 48.7000 -118.8444 276° West 324 373 36,600 492 Climbing Seattle Center
Fri 06:11:54 PM 48.7144 -118.9931 278° West 301 346 34,200 -1,475 Descending Seattle Center
Fri 06:12:55 PM 48.7153 -119.1431 271° West 353 406 33,600 -1,033 Descending Seattle Center
Fri 06:13:56 PM 48.5903 -119.1119 171° South 510 587 32,100 -98 Descending Seattle Center
Fri 06:14:57 PM 48.5283 -118.8828 112° Southeast 589 678 33,400 836 Climbing Seattle Center
Fri 06:15:58 PM 48.5253 -118.6281 91° East 609 701 33,800 590 Climbing Seattle Center
Fri 06:16:59 PM 48.5642 -118.3778 77° East 616 709 34,600 -1,131 Climbing Seattle Center
Fri 06:18:00 PM 48.4367 -118.2844 154° Southeast 585 673 31,500 -787 Descending Seattle Center
Fri 06:19:01 PM 48.2897 -118.2536 172° South 545 627 33,000 443 Climbing Seattle Center
Fri 06:20:02 PM 48.1769 -118.0783 134° Southeast 594 684 32,400 -843 Descending Seattle Center
Fri 06:21:02 PM 48.1400 -117.8306 103° East 608 700 31,300 -1,041 Descending Seattle Center
Fri 06:22:03 PM 48.1047 -117.5931 102° East 592 681 30,300 -639 Descending Seattle Center
Fri 06:23:04 PM 48.0525 -117.3847 110° East 537 618 30,000 -197 Descending Seattle Center
Fri 06:24:05 PM 47.9311 -117.2881 152° Southeast 500 575 29,900  Descending Seattle Center
Fri 06:25:06 PM 47.7950 -117.3589 199° South 440 506 30,000  Climbing Seattle Center
Fri 06:26:07 PM 47.7397 -117.5036 240° Southwest 412 474 29,900 -49 Descending Seattle Center
Fri 06:27:08 PM 47.7422 -117.6733 271° West 414 476 29,900 49 Level Seattle Center
Fri 06:28:09 PM 47.7494 -117.8481 274° West 422 486 30,000 50 Climbing Seattle Center
Fri 06:29:09 PM 47.7583 -118.0231 274° West 427 491 30,000 -50 Level Seattle Center
Fri 06:30:10 PM 47.7653 -118.2006 273° West 430 495 29,900  Descending Seattle Center
Fri 06:31:11 PM 47.7719 -118.3753 273° West 427 491 30,000  Climbing Seattle Center
Fri 06:32:12 PM 47.7797 -118.5525 274° West 429 494 29,900  Descending Seattle Center
Fri 06:33:13 PM 47.7864 -118.7303 273° West 432 497 30,000  Climbing Seattle Center
Fri 06:34:14 PM 47.7931 -118.9078 273° West 431 496 29,900  Descending Seattle Center
Fri 06:35:15 PM 47.7986 -119.0889 273° West 436 502 30,000 49 Climbing Seattle Center
Fri 06:36:16 PM 47.8056 -119.2678 273° West 439 505 30,000  Level Seattle Center
Fri 06:37:17 PM 47.8119 -119.4828 273° West 437 503 30,000 -49 Level Seattle Center
Fri 06:38:18 PM 47.8183 -119.6644 273° West 439 505 29,900 -98 Descending Seattle Center
Fri 06:39:19 PM 47.8222 -119.8417 272° West 432 497 29,800 -541 Descending Seattle Center
Fri 06:40:20 PM 47.8283 -120.0156 273° West 423 487 28,800 -1,131 Descending Seattle Center
Fri 06:41:21 PM 47.8322 -120.1869 272° West 417 480 27,500 -1,131 Descending Seattle Center
Fri 06:42:22 PM 47.8361 -120.3622 272° West 424 488 26,500 -1,377 Descending Seattle Center
Fri 06:43:23 PM 47.8431 -120.5269 274° West 407 468 24,700 -2,066 Descending Seattle Center
Fri 06:44:24 PM 47.8483 -120.6919 273° West 402 463 22,300 -2,459 Descending Seattle Center
Fri 06:45:25 PM 47.8511 -120.8717 271° West 390 449 19,700 -2,410 Descending Seattle Center
Fri 06:46:26 PM 47.8503 -121.0272 270° West 382 440 17,400 -2,340 Descending Seattle Center
Fri 06:47:05 PM 47.8553 -121.1325 274° West 377 434 15,800 -2,262 Descending Seattle Center
Fri 06:47:27 PM 47.8528 -121.1764 265° West 368 423 15,100 -2,262 Descending Seattle Center
Fri 06:48:06 PM 47.8600 -121.2789 276° West 358 412 13,500 -2,066 Descending Seattle Center
Fri 06:48:28 PM 47.8619 -121.3219 274° West 358 412 13,000 -1,400 Descending Seattle Center
Fri 06:49:06 PM 47.8697 -121.4358 276° West 351 404 12,100 -984 Descending Seattle Center
Fri 06:49:29 PM 47.8717 -121.4625 276° West 341 392 12,000 -429 Descending Seattle Center
Fri 06:50:30 PM 47.8786 -121.5842 275° West 299 344 11,500 -686 Descending Seattle Center
Fri 06:51:14 PM 47.8839 -121.6800 275° West 258 297 10,800 -787 Descending Seattle Center
Fri 06:51:31 PM 47.8844 -121.6917 274° West 267 307 10,700 -984 Descending Seattle Center
Fri 06:52:15 PM 47.8417 -121.7669 230° Southwest 273 314 9,800 -1,180 Descending Seattle Center
Fri 06:52:32 PM 47.8228 -121.7897 219° Southwest 274 315 9,500 -1,200 Descending Seattle Center
Fri 06:53:10 PM 47.7883 -121.8367 222° Southwest 275 316 8,700 -1,279 Descending Seattle Center
Fri 06:53:33 PM 47.7664 -121.8653 221° Southwest 275 316 8,200 -1,475 Descending Seattle Center
Fri 06:54:11 PM 47.7406 -121.9200 235° Southwest 271 312 7,200 -1,574 Descending Seattle Center
Fri 06:54:34 PM 47.7394 -121.9600 268° West 266 306 6,600 -1,500 Descending Seattle Center
Fri 06:55:11 PM 47.7364 -122.0344 267° West 257 296 5,700 -1,475 Descending Seattle Center
Fri 06:55:35 PM 47.7361 -122.0742 269° West 259 298 5,100 -1,343 Descending Seattle Center
Fri 06:56:18 PM 47.7350 -122.1508 269° West 262 302 4,200 -1,180 Descending Seattle Center
Fri 06:56:36 PM 47.7344 -122.1817 268° West 261 300 3,900 -787 Descending Seattle Center
Fri 06:57:19 PM 47.7342 -122.2533 270° West 246 283 3,400 -885 Descending Seattle Center
Fri 06:57:37 PM 47.7328 -122.2814 266° West 245 282 3,000 -1,200 Descending Seattle Center
Fri 06:58:14 PM 47.7258 -122.3436 261° West 242 278 2,300 -787 Descending Seattle Center
Fri 06:58:38 PM 47.7203 -122.3761 256° West 238 274 2,200  Descending Seattle Center
Fri 06:59:21 PM 47.6917 -122.4283 231° Southwest 217 250 2,300  Climbing Seattle Center
Fri 06:59:41 PM 47.6739 -122.4242 171° South 217 250 2,200 -109 Descending Seattle Center
Fri 07:00:16 PM 47.6475 -122.4033 152° Southeast 176 203 2,200 -98 Level Seattle Center
Fri 07:00:42 PM 47.6306 -122.3889 150° Southeast 183 211 2,100 -590 Descending Seattle Center
Fri 07:01:17 PM 47.6061 -122.3703 153° Southeast 163 188 1,600 -885 Descending Seattle Center
Fri 07:01:43 PM 47.5889 -122.3528 146° Southeast 161 185 1,200 -896 Descending Seattle Center
Fri 07:02:24 PM 47.5656 -122.3336 151° Southeast 153 176 600 -885 Descending Seattle Center
Fri 07:02:44 PM 47.5517 -122.3211 149° Southeast 156 180 300 7,704 Descending Seattle Center
Fri 07:03:45 PM 47.5211 -122.2967 152° Southeast 156 180 11,000 10,525 Climbing Seattle Center
Fri 07:05:00 PM 47.5167 -122.3000 186° South  Level FlightAware Approximate

Login

Don't have an account? Register now (free) for customized features, flight alerts, and more!